Airfield :







YOU CAN JOIN US ON...

 
LOGIN :

Register | Disclaimer

   EN    FR    IT 

 









Legend :    VFR   Marginal VFR   IFR   Intensive IFR   Very Intensive IFR
Visi :
Ceiling :
>= 8 km
>= 3000ft
5 to 8 km
1000 to 3000 ft
1500m to 5 km
500 to 1000 ft
800 to 1500m
200 to 500 ft
< 800m
< 200 ft
Symbols :   Thunderstorms  Fog  Heavy snow  Heavy precipitations  Wind > 20 kt






- Airport Elevation : 59 ft
- IATA code : SDQ


MDSD - Las Americas Int.

CURRENT METAR :
  • 131500Z 06006KT 9999 SCT020 32/26 Q1018

EXPIRED METARs :
  • 131400Z 08005KT 9999 FEW020 31/26 Q1018
  • 131300Z 03006KT 9999 FEW018 29/26 Q1018
  • 131200Z 04005KT 9999 FEW018 SCT300 27/25 Q1018
  • 131100Z 36004KT 9999 FEW016 SCT300 25/25 Q1018
  • 131000Z 00000KT 9999 FEW016 SCT300 25/25 Q1018

TAF TAF MDSD
Valid from the 13 at 12:00 until the 14 at 12:00 UTC


131000Z 1312/1412 03005KT 9999 SCT023 SCT300
PROB30 1316/1321 7000 ?TSRA FEW016CB BKN017 BKN300
BECMG 1318/1320 12006KT
MDCS FIR / North America



MET'MAP, your aeronautical weather chart ! - Copyright ORBIFLY December 2007 - Disclaimer

ORBIFLY MET'MAP TEAM :

Programming & Development : Alexandra Zaïnal
Original concept : Baudouin d'Aumeries
Technical & hardware support : Manuel Goepfert
Assistance : Marc-Olivier Méhu




SOURCES & CREDITS :

   NOAA